sensor_id;sensor_type;location;lat;lon;timestamp;P1;durP1;ratioP1;P2;durP2;ratioP2
35897;SDS011;21997;47.118;15.346;2022-07-23T00:01:11;9.90;;;9.07;;
35897;SDS011;21997;47.118;15.346;2022-07-23T00:03:36;11.97;;;10.83;;
35897;SDS011;21997;47.118;15.346;2022-07-23T00:06:01;11.63;;;10.63;;
35897;SDS011;21997;47.118;15.346;2022-07-23T00:08:27;11.70;;;10.43;;
35897;SDS011;21997;47.118;15.346;2022-07-23T00:10:52;11.53;;;10.53;;
35897;SDS011;21997;47.118;15.346;2022-07-23T00:13:17;11.87;;;10.73;;
35897;SDS011;21997;47.118;15.346;2022-07-23T00:15:43;12.17;;;11.07;;
35897;SDS011;21997;47.118;15.346;2022-07-23T00:18:08;10.97;;;10.07;;
35897;SDS011;21997;47.118;15.346;2022-07-23T00:20:33;11.90;;;10.83;;
35897;SDS011;21997;47.118;15.346;2022-07-23T00:22:59;11.37;;;10.37;;
35897;SDS011;21997;47.118;15.346;2022-07-23T00:25:26;11.73;;;10.57;;
35897;SDS011;21997;47.118;15.346;2022-07-23T00:27:51;11.53;;;10.43;;
35897;SDS011;21997;47.118;15.346;2022-07-23T00:30:17;11.67;;;10.67;;
35897;SDS011;21997;47.118;15.346;2022-07-23T00:32:49;11.53;;;10.53;;
35897;SDS011;21997;47.118;15.346;2022-07-23T00:35:19;11.83;;;10.80;;
35897;SDS011;21997;47.118;15.346;2022-07-23T00:37:45;12.03;;;11.00;;
35897;SDS011;21997;47.118;15.346;2022-07-23T00:40:11;12.07;;;10.87;;
35897;SDS011;21997;47.118;15.346;2022-07-23T00:42:37;11.60;;;10.60;;
35897;SDS011;21997;47.118;15.346;2022-07-23T00:45:03;12.10;;;11.00;;
35897;SDS011;21997;47.118;15.346;2022-07-23T00:47:29;11.13;;;10.17;;
35897;SDS011;21997;47.118;15.346;2022-07-23T00:49:54;11.67;;;10.50;;
35897;SDS011;21997;47.118;15.346;2022-07-23T00:52:20;11.37;;;10.47;;
35897;SDS011;21997;47.118;15.346;2022-07-23T00:54:45;13.63;;;10.73;;
35897;SDS011;21997;47.118;15.346;2022-07-23T00:57:10;12.30;;;11.10;;
35897;SDS011;21997;47.118;15.346;2022-07-23T00:59:37;11.57;;;10.47;;
35897;SDS011;21997;47.118;15.346;2022-07-23T01:02:03;11.70;;;10.60;;
35897;SDS011;21997;47.118;15.346;2022-07-23T01:04:29;11.23;;;10.23;;
35897;SDS011;21997;47.118;15.346;2022-07-23T01:06:54;11.63;;;10.53;;
35897;SDS011;21997;47.118;15.346;2022-07-23T01:09:19;11.63;;;10.63;;
35897;SDS011;21997;47.118;15.346;2022-07-23T01:11:46;11.60;;;10.20;;
35897;SDS011;21997;47.118;15.346;2022-07-23T01:14:12;10.30;;;9.40;;
35897;SDS011;21997;47.118;15.346;2022-07-23T01:16:39;11.13;;;10.13;;
35897;SDS011;21997;47.118;15.346;2022-07-23T01:19:05;11.07;;;10.07;;
35897;SDS011;21997;47.118;15.346;2022-07-23T01:21:32;11.43;;;10.43;;
35897;SDS011;21997;47.118;15.346;2022-07-23T01:24:00;11.20;;;10.30;;
35897;SDS011;21997;47.118;15.346;2022-07-23T01:26:26;10.37;;;9.47;;
35897;SDS011;21997;47.118;15.346;2022-07-23T01:28:51;11.93;;;10.83;;
35897;SDS011;21997;47.118;15.346;2022-07-23T01:31:16;10.13;;;9.30;;
35897;SDS011;21997;47.118;15.346;2022-07-23T01:33:42;12.03;;;10.80;;
35897;SDS011;21997;47.118;15.346;2022-07-23T01:36:08;11.27;;;10.27;;
35897;SDS011;21997;47.118;15.346;2022-07-23T01:38:34;12.40;;;11.20;;
35897;SDS011;21997;47.118;15.346;2022-07-23T01:40:59;11.57;;;10.37;;
35897;SDS011;21997;47.118;15.346;2022-07-23T01:43:24;11.20;;;9.97;;
35897;SDS011;21997;47.118;15.346;2022-07-23T01:45:50;11.50;;;10.50;;
35897;SDS011;21997;47.118;15.346;2022-07-23T01:48:15;12.00;;;10.90;;
35897;SDS011;21997;47.118;15.346;2022-07-23T01:50:41;11.93;;;10.73;;
35897;SDS011;21997;47.118;15.346;2022-07-23T01:53:06;10.80;;;9.70;;
35897;SDS011;21997;47.118;15.346;2022-07-23T01:55:32;11.03;;;9.93;;
35897;SDS011;21997;47.118;15.346;2022-07-23T01:57:57;11.97;;;10.90;;
35897;SDS011;21997;47.118;15.346;2022-07-23T02:00:23;13.03;;;11.90;;
35897;SDS011;21997;47.118;15.346;2022-07-23T02:02:48;12.77;;;11.47;;
35897;SDS011;21997;47.118;15.346;2022-07-23T02:05:14;12.63;;;11.43;;
35897;SDS011;21997;47.118;15.346;2022-07-23T02:07:39;12.60;;;11.33;;
35897;SDS011;21997;47.118;15.346;2022-07-23T02:10:05;12.37;;;11.27;;
35897;SDS011;21997;47.118;15.346;2022-07-23T02:12:30;11.80;;;10.80;;
35897;SDS011;21997;47.118;15.346;2022-07-23T02:14:56;11.83;;;10.73;;
35897;SDS011;21997;47.118;15.346;2022-07-23T02:17:21;11.47;;;10.37;;
35897;SDS011;21997;47.118;15.346;2022-07-23T02:19:46;11.73;;;10.37;;
35897;SDS011;21997;47.118;15.346;2022-07-23T02:22:12;11.67;;;10.60;;
35897;SDS011;21997;47.118;15.346;2022-07-23T02:24:37;11.50;;;10.50;;
35897;SDS011;21997;47.118;15.346;2022-07-23T02:27:02;11.87;;;10.77;;
35897;SDS011;21997;47.118;15.346;2022-07-23T02:29:28;11.60;;;10.50;;
35897;SDS011;21997;47.118;15.346;2022-07-23T02:31:53;11.73;;;10.53;;
35897;SDS011;21997;47.118;15.346;2022-07-23T02:34:19;11.20;;;10.10;;
35897;SDS011;21997;47.118;15.346;2022-07-23T02:36:44;11.73;;;10.53;;
35897;SDS011;21997;47.118;15.346;2022-07-23T02:39:10;11.40;;;10.37;;
35897;SDS011;21997;47.118;15.346;2022-07-23T02:41:36;12.10;;;10.47;;
35897;SDS011;21997;47.118;15.346;2022-07-23T02:44:01;11.80;;;10.80;;
35897;SDS011;21997;47.118;15.346;2022-07-23T02:46:27;11.43;;;10.23;;
35897;SDS011;21997;47.118;15.346;2022-07-23T02:48:53;12.00;;;10.93;;
35897;SDS011;21997;47.118;15.346;2022-07-23T02:51:18;11.37;;;10.27;;
35897;SDS011;21997;47.118;15.346;2022-07-23T02:53:43;12.17;;;10.70;;
35897;SDS011;21997;47.118;15.346;2022-07-23T02:56:09;11.10;;;10.00;;
35897;SDS011;21997;47.118;15.346;2022-07-23T02:58:34;11.63;;;10.63;;
35897;SDS011;21997;47.118;15.346;2022-07-23T03:00:59;11.87;;;10.83;;
35897;SDS011;21997;47.118;15.346;2022-07-23T03:03:25;11.57;;;10.60;;
35897;SDS011;21997;47.118;15.346;2022-07-23T03:05:50;10.67;;;9.77;;
35897;SDS011;21997;47.118;15.346;2022-07-23T03:08:16;10.47;;;9.57;;
35897;SDS011;21997;47.118;15.346;2022-07-23T03:10:41;11.80;;;10.60;;
35897;SDS011;21997;47.118;15.346;2022-07-23T03:13:06;12.27;;;11.27;;
35897;SDS011;21997;47.118;15.346;2022-07-23T03:15:32;11.63;;;10.63;;
35897;SDS011;21997;47.118;15.346;2022-07-23T03:17:57;11.10;;;10.10;;
35897;SDS011;21997;47.118;15.346;2022-07-23T03:20:22;12.77;;;11.37;;
35897;SDS011;21997;47.118;15.346;2022-07-23T03:22:48;12.03;;;10.43;;
35897;SDS011;21997;47.118;15.346;2022-07-23T03:25:13;11.70;;;10.60;;
35897;SDS011;21997;47.118;15.346;2022-07-23T03:27:38;12.00;;;10.97;;
35897;SDS011;21997;47.118;15.346;2022-07-23T03:30:04;12.20;;;11.00;;
35897;SDS011;21997;47.118;15.346;2022-07-23T03:32:30;11.60;;;10.47;;
35897;SDS011;21997;47.118;15.346;2022-07-23T03:34:56;11.73;;;10.53;;
35897;SDS011;21997;47.118;15.346;2022-07-23T03:37:22;11.97;;;10.87;;
35897;SDS011;21997;47.118;15.346;2022-07-23T03:39:47;11.23;;;10.23;;
35897;SDS011;21997;47.118;15.346;2022-07-23T03:42:13;11.43;;;10.40;;
35897;SDS011;21997;47.118;15.346;2022-07-23T03:44:38;12.90;;;11.77;;
35897;SDS011;21997;47.118;15.346;2022-07-23T03:47:04;12.03;;;10.83;;
35897;SDS011;21997;47.118;15.346;2022-07-23T03:49:30;12.57;;;11.40;;
35897;SDS011;21997;47.118;15.346;2022-07-23T03:51:55;12.10;;;11.07;;
35897;SDS011;21997;47.118;15.346;2022-07-23T03:54:21;12.37;;;11.17;;
35897;SDS011;21997;47.118;15.346;2022-07-23T03:56:46;12.33;;;11.03;;
35897;SDS011;21997;47.118;15.346;2022-07-23T03:59:11;11.97;;;10.67;;
35897;SDS011;21997;47.118;15.346;2022-07-23T04:01:37;11.57;;;10.57;;
35897;SDS011;21997;47.118;15.346;2022-07-23T04:04:02;11.33;;;10.30;;
35897;SDS011;21997;47.118;15.346;2022-07-23T04:06:28;10.83;;;9.90;;
35897;SDS011;21997;47.118;15.346;2022-07-23T04:08:54;11.73;;;10.33;;
35897;SDS011;21997;47.118;15.346;2022-07-23T04:11:19;11.90;;;10.17;;
35897;SDS011;21997;47.118;15.346;2022-07-23T04:13:45;11.13;;;10.17;;
35897;SDS011;21997;47.118;15.346;2022-07-23T04:16:10;11.53;;;10.43;;
35897;SDS011;21997;47.118;15.346;2022-07-23T04:18:36;12.47;;;11.37;;
35897;SDS011;21997;47.118;15.346;2022-07-23T04:21:01;11.73;;;10.63;;
35897;SDS011;21997;47.118;15.346;2022-07-23T04:23:26;12.03;;;10.93;;
35897;SDS011;21997;47.118;15.346;2022-07-23T04:25:52;11.63;;;10.53;;
35897;SDS011;21997;47.118;15.346;2022-07-23T04:28:17;11.77;;;10.67;;
35897;SDS011;21997;47.118;15.346;2022-07-23T04:30:42;11.33;;;10.33;;
35897;SDS011;21997;47.118;15.346;2022-07-23T04:33:08;10.83;;;9.97;;
35897;SDS011;21997;47.118;15.346;2022-07-23T04:35:34;12.73;;;10.50;;
35897;SDS011;21997;47.118;15.346;2022-07-23T04:37:59;11.57;;;10.47;;
35897;SDS011;21997;47.118;15.346;2022-07-23T04:40:25;12.27;;;11.00;;
35897;SDS011;21997;47.118;15.346;2022-07-23T04:42:51;12.27;;;10.97;;
35897;SDS011;21997;47.118;15.346;2022-07-23T04:45:16;11.83;;;10.83;;
35897;SDS011;21997;47.118;15.346;2022-07-23T04:47:41;11.17;;;10.17;;
35897;SDS011;21997;47.118;15.346;2022-07-23T04:50:07;13.33;;;11.93;;
35897;SDS011;21997;47.118;15.346;2022-07-23T04:52:32;11.80;;;10.70;;
35897;SDS011;21997;47.118;15.346;2022-07-23T04:54:58;12.37;;;11.23;;
35897;SDS011;21997;47.118;15.346;2022-07-23T04:57:23;11.70;;;10.57;;
35897;SDS011;21997;47.118;15.346;2022-07-23T04:59:48;11.90;;;10.80;;
35897;SDS011;21997;47.118;15.346;2022-07-23T05:02:14;12.00;;;10.73;;
35897;SDS011;21997;47.118;15.346;2022-07-23T05:04:39;12.27;;;11.17;;
35897;SDS011;21997;47.118;15.346;2022-07-23T05:07:05;14.73;;;12.03;;
35897;SDS011;21997;47.118;15.346;2022-07-23T05:09:30;11.93;;;10.27;;
35897;SDS011;21997;47.118;15.346;2022-07-23T05:11:56;12.63;;;11.53;;
35897;SDS011;21997;47.118;15.346;2022-07-23T05:14:21;14.47;;;11.00;;
35897;SDS011;21997;47.118;15.346;2022-07-23T05:16:46;15.57;;;12.13;;
35897;SDS011;21997;47.118;15.346;2022-07-23T05:19:12;13.43;;;12.00;;
35897;SDS011;21997;47.118;15.346;2022-07-23T05:21:37;12.77;;;11.60;;
35897;SDS011;21997;47.118;15.346;2022-07-23T05:24:03;12.37;;;11.17;;
35897;SDS011;21997;47.118;15.346;2022-07-23T05:26:28;13.00;;;11.60;;
35897;SDS011;21997;47.118;15.346;2022-07-23T05:28:53;12.77;;;11.20;;
35897;SDS011;21997;47.118;15.346;2022-07-23T05:31:19;12.30;;;11.30;;
35897;SDS011;21997;47.118;15.346;2022-07-23T05:33:45;12.10;;;11.00;;
35897;SDS011;21997;47.118;15.346;2022-07-23T05:36:10;13.10;;;11.57;;
35897;SDS011;21997;47.118;15.346;2022-07-23T05:38:36;11.70;;;10.50;;
35897;SDS011;21997;47.118;15.346;2022-07-23T05:41:01;12.13;;;10.93;;
35897;SDS011;21997;47.118;15.346;2022-07-23T05:43:27;12.10;;;10.93;;
35897;SDS011;21997;47.118;15.346;2022-07-23T05:45:52;11.77;;;10.57;;
35897;SDS011;21997;47.118;15.346;2022-07-23T05:48:18;11.10;;;10.20;;
35897;SDS011;21997;47.118;15.346;2022-07-23T05:50:44;11.90;;;10.70;;
35897;SDS011;21997;47.118;15.346;2022-07-23T05:53:09;13.23;;;10.77;;
35897;SDS011;21997;47.118;15.346;2022-07-23T05:55:35;11.23;;;10.20;;
35897;SDS011;21997;47.118;15.346;2022-07-23T05:58:00;11.33;;;10.23;;
35897;SDS011;21997;47.118;15.346;2022-07-23T06:00:26;11.17;;;10.07;;
35897;SDS011;21997;47.118;15.346;2022-07-23T06:02:52;11.10;;;10.07;;
35897;SDS011;21997;47.118;15.346;2022-07-23T06:05:18;10.10;;;9.20;;
35897;SDS011;21997;47.118;15.346;2022-07-23T06:07:43;13.00;;;9.63;;
35897;SDS011;21997;47.118;15.346;2022-07-23T06:10:09;9.90;;;8.97;;
35897;SDS011;21997;47.118;15.346;2022-07-23T06:12:35;10.63;;;9.73;;
35897;SDS011;21997;47.118;15.346;2022-07-23T06:15:01;11.32;;;10.32;;
35897;SDS011;21997;47.118;15.346;2022-07-23T06:17:28;10.45;;;9.48;;
35897;SDS011;21997;47.118;15.346;2022-07-23T06:19:53;11.82;;;10.80;;
35897;SDS011;21997;47.118;15.346;2022-07-23T06:22:20;12.75;;;10.38;;
35897;SDS011;21997;47.118;15.346;2022-07-23T06:24:46;10.73;;;9.73;;
35897;SDS011;21997;47.118;15.346;2022-07-23T06:27:11;12.00;;;10.07;;
35897;SDS011;21997;47.118;15.346;2022-07-23T06:29:37;10.52;;;9.52;;
35897;SDS011;21997;47.118;15.346;2022-07-23T06:32:02;10.50;;;9.48;;
35897;SDS011;21997;47.118;15.346;2022-07-23T06:34:28;10.60;;;9.60;;
35897;SDS011;21997;47.118;15.346;2022-07-23T06:36:53;10.75;;;9.65;;
35897;SDS011;21997;47.118;15.346;2022-07-23T06:39:19;10.52;;;9.48;;
35897;SDS011;21997;47.118;15.346;2022-07-23T06:41:44;9.80;;;8.93;;
35897;SDS011;21997;47.118;15.346;2022-07-23T06:44:10;10.52;;;9.70;;
35897;SDS011;21997;47.118;15.346;2022-07-23T06:46:35;10.90;;;9.77;;
35897;SDS011;21997;47.118;15.346;2022-07-23T06:49:01;9.02;;;8.23;;
35897;SDS011;21997;47.118;15.346;2022-07-23T06:51:26;10.23;;;8.25;;
35897;SDS011;21997;47.118;15.346;2022-07-23T06:53:51;11.00;;;9.90;;
35897;SDS011;21997;47.118;15.346;2022-07-23T06:56:17;9.32;;;8.52;;
35897;SDS011;21997;47.118;15.346;2022-07-23T06:58:42;9.20;;;8.40;;
35897;SDS011;21997;47.118;15.346;2022-07-23T07:01:08;8.23;;;7.40;;
35897;SDS011;21997;47.118;15.346;2022-07-23T07:03:33;12.60;;;8.30;;
35897;SDS011;21997;47.118;15.346;2022-07-23T07:05:59;9.38;;;8.07;;
35897;SDS011;21997;47.118;15.346;2022-07-23T07:08:24;8.95;;;8.15;;
35897;SDS011;21997;47.118;15.346;2022-07-23T07:10:50;8.57;;;7.88;;
35897;SDS011;21997;47.118;15.346;2022-07-23T07:13:15;8.70;;;7.88;;
35897;SDS011;21997;47.118;15.346;2022-07-23T07:15:41;9.38;;;8.48;;
35897;SDS011;21997;47.118;15.346;2022-07-23T07:18:06;7.78;;;7.18;;
35897;SDS011;21997;47.118;15.346;2022-07-23T07:20:32;8.63;;;7.85;;
35897;SDS011;21997;47.118;15.346;2022-07-23T07:22:57;7.97;;;7.28;;
35897;SDS011;21997;47.118;15.346;2022-07-23T07:25:22;7.95;;;6.80;;
35897;SDS011;21997;47.118;15.346;2022-07-23T07:27:48;7.50;;;6.88;;
35897;SDS011;21997;47.118;15.346;2022-07-23T07:30:13;7.93;;;7.18;;
35897;SDS011;21997;47.118;15.346;2022-07-23T07:32:39;7.13;;;6.53;;
35897;SDS011;21997;47.118;15.346;2022-07-23T07:35:05;6.97;;;6.38;;
35897;SDS011;21997;47.118;15.346;2022-07-23T07:37:30;7.38;;;6.78;;
35897;SDS011;21997;47.118;15.346;2022-07-23T07:39:56;6.95;;;6.35;;
35897;SDS011;21997;47.118;15.346;2022-07-23T07:42:21;6.60;;;6.10;;
35897;SDS011;21997;47.118;15.346;2022-07-23T07:44:46;7.32;;;6.72;;
35897;SDS011;21997;47.118;15.346;2022-07-23T07:47:12;7.10;;;6.40;;
35897;SDS011;21997;47.118;15.346;2022-07-23T07:49:40;6.57;;;6.07;;
35897;SDS011;21997;47.118;15.346;2022-07-23T07:52:06;6.18;;;5.53;;
35897;SDS011;21997;47.118;15.346;2022-07-23T07:54:31;7.22;;;5.70;;
35897;SDS011;21997;47.118;15.346;2022-07-23T07:56:57;6.25;;;5.57;;
35897;SDS011;21997;47.118;15.346;2022-07-23T07:59:23;9.15;;;5.85;;
35897;SDS011;21997;47.118;15.346;2022-07-23T08:01:48;5.30;;;4.90;;
35897;SDS011;21997;47.118;15.346;2022-07-23T08:04:13;5.13;;;4.72;;
35897;SDS011;21997;47.118;15.346;2022-07-23T08:06:39;4.93;;;4.53;;
35897;SDS011;21997;47.118;15.346;2022-07-23T08:09:04;4.93;;;4.13;;
35897;SDS011;21997;47.118;15.346;2022-07-23T08:11:30;4.93;;;4.53;;
35897;SDS011;21997;47.118;15.346;2022-07-23T08:13:55;4.80;;;4.40;;
35897;SDS011;21997;47.118;15.346;2022-07-23T08:16:21;5.05;;;4.50;;
35897;SDS011;21997;47.118;15.346;2022-07-23T08:18:46;4.82;;;4.43;;
35897;SDS011;21997;47.118;15.346;2022-07-23T08:21:11;4.00;;;3.70;;
35897;SDS011;21997;47.118;15.346;2022-07-23T08:23:37;4.03;;;3.65;;
35897;SDS011;21997;47.118;15.346;2022-07-23T08:26:02;4.28;;;3.97;;
35897;SDS011;21997;47.118;15.346;2022-07-23T08:28:28;3.85;;;3.55;;
35897;SDS011;21997;47.118;15.346;2022-07-23T08:30:53;4.20;;;3.90;;
35897;SDS011;21997;47.118;15.346;2022-07-23T08:33:19;4.35;;;3.95;;
35897;SDS011;21997;47.118;15.346;2022-07-23T08:35:45;4.03;;;3.67;;
35897;SDS011;21997;47.118;15.346;2022-07-23T08:38:14;3.30;;;3.10;;
35897;SDS011;21997;47.118;15.346;2022-07-23T08:40:42;4.07;;;3.67;;
35897;SDS011;21997;47.118;15.346;2022-07-23T08:43:32;4.47;;;4.07;;
35897;SDS011;21997;47.118;15.346;2022-07-23T08:45:57;4.10;;;3.80;;
35897;SDS011;21997;47.118;15.346;2022-07-23T08:48:41;3.50;;;3.20;;
35897;SDS011;21997;47.118;15.346;2022-07-23T08:51:07;3.83;;;3.38;;
35897;SDS011;21997;47.118;15.346;2022-07-23T08:53:33;3.35;;;3.13;;
35897;SDS011;21997;47.118;15.346;2022-07-23T08:56:01;3.78;;;3.55;;
35897;SDS011;21997;47.118;15.346;2022-07-23T08:58:27;4.00;;;3.60;;
35897;SDS011;21997;47.118;15.346;2022-07-23T09:00:53;3.67;;;3.38;;
35897;SDS011;21997;47.118;15.346;2022-07-23T09:03:19;4.78;;;3.80;;
35897;SDS011;21997;47.118;15.346;2022-07-23T09:05:46;3.90;;;3.60;;
35897;SDS011;21997;47.118;15.346;2022-07-23T09:08:16;4.22;;;3.92;;
35897;SDS011;21997;47.118;15.346;2022-07-23T09:10:56;5.47;;;3.85;;
35897;SDS011;21997;47.118;15.346;2022-07-23T09:13:23;4.65;;;4.28;;
35897;SDS011;21997;47.118;15.346;2022-07-23T09:15:53;3.53;;;3.30;;
35897;SDS011;21997;47.118;15.346;2022-07-23T09:18:30;4.10;;;3.60;;
35897;SDS011;21997;47.118;15.346;2022-07-23T09:21:10;3.53;;;3.22;;
35897;SDS011;21997;47.118;15.346;2022-07-23T09:23:47;3.90;;;3.60;;
35897;SDS011;21997;47.118;15.346;2022-07-23T09:31:44;3.60;;;3.30;;
35897;SDS011;21997;47.118;15.346;2022-07-23T09:34:11;3.70;;;3.40;;
35897;SDS011;21997;47.118;15.346;2022-07-23T09:36:41;3.85;;;3.55;;
35897;SDS011;21997;47.118;15.346;2022-07-23T09:39:07;3.72;;;3.42;;
35897;SDS011;21997;47.118;15.346;2022-07-23T09:41:36;5.05;;;3.50;;
35897;SDS011;21997;47.118;15.346;2022-07-23T09:44:09;3.33;;;3.13;;
35897;SDS011;21997;47.118;15.346;2022-07-23T09:46:42;3.35;;;3.08;;
35897;SDS011;21997;47.118;15.346;2022-07-23T09:49:16;4.30;;;3.80;;
35897;SDS011;21997;47.118;15.346;2022-07-23T09:51:55;3.50;;;3.30;;
35897;SDS011;21997;47.118;15.346;2022-07-23T09:54:33;3.47;;;3.28;;
35897;SDS011;21997;47.118;15.346;2022-07-23T09:57:02;3.95;;;3.65;;
35897;SDS011;21997;47.118;15.346;2022-07-23T09:59:39;4.28;;;3.97;;
35897;SDS011;21997;47.118;15.346;2022-07-23T10:02:05;4.13;;;3.80;;
35897;SDS011;21997;47.118;15.346;2022-07-23T10:04:32;4.70;;;4.00;;
35897;SDS011;21997;47.118;15.346;2022-07-23T10:07:01;3.60;;;3.30;;
35897;SDS011;21997;47.118;15.346;2022-07-23T10:09:32;5.88;;;3.80;;
35897;SDS011;21997;47.118;15.346;2022-07-23T10:12:00;4.63;;;3.70;;
35897;SDS011;21997;47.118;15.346;2022-07-23T10:14:45;3.80;;;3.35;;
35897;SDS011;21997;47.118;15.346;2022-07-23T10:17:11;4.50;;;3.65;;
35897;SDS011;21997;47.118;15.346;2022-07-23T10:19:36;3.92;;;3.53;;
35897;SDS011;21997;47.118;15.346;2022-07-23T10:22:03;3.50;;;3.20;;
35897;SDS011;21997;47.118;15.346;2022-07-23T10:30:07;3.45;;;3.15;;
35897;SDS011;21997;47.118;15.346;2022-07-23T10:35:33;4.97;;;3.20;;
35897;SDS011;21997;47.118;15.346;2022-07-23T10:38:13;3.10;;;2.90;;
35897;SDS011;21997;47.118;15.346;2022-07-23T10:40:57;3.72;;;2.97;;
35897;SDS011;21997;47.118;15.346;2022-07-23T10:43:24;3.95;;;3.22;;
35897;SDS011;21997;47.118;15.346;2022-07-23T10:45:50;3.70;;;3.25;;
35897;SDS011;21997;47.118;15.346;2022-07-23T10:48:17;4.10;;;3.72;;
35897;SDS011;21997;47.118;15.346;2022-07-23T10:53:57;8.93;;;4.03;;
35897;SDS011;21997;47.118;15.346;2022-07-23T10:59:15;3.10;;;2.80;;
35897;SDS011;21997;47.118;15.346;2022-07-23T11:01:40;4.13;;;3.72;;
35897;SDS011;21997;47.118;15.346;2022-07-23T11:04:05;3.85;;;3.55;;
35897;SDS011;21997;47.118;15.346;2022-07-23T11:09:26;4.05;;;3.05;;
35897;SDS011;21997;47.118;15.346;2022-07-23T11:25:07;3.47;;;3.28;;
35897;SDS011;21997;47.118;15.346;2022-07-23T11:27:39;5.57;;;3.63;;
35897;SDS011;21997;47.118;15.346;2022-07-23T11:30:10;3.72;;;3.42;;
35897;SDS011;21997;47.118;15.346;2022-07-23T11:32:39;3.78;;;3.47;;
35897;SDS011;21997;47.118;15.346;2022-07-23T11:35:22;4.70;;;4.30;;
35897;SDS011;21997;47.118;15.346;2022-07-23T11:37:52;3.95;;;3.47;;
35897;SDS011;21997;47.118;15.346;2022-07-23T11:40:23;4.05;;;3.65;;
35897;SDS011;21997;47.118;15.346;2022-07-23T11:42:51;4.32;;;3.80;;
35897;SDS011;21997;47.118;15.346;2022-07-23T11:45:33;5.10;;;4.70;;
35897;SDS011;21997;47.118;15.346;2022-07-23T11:48:01;4.80;;;4.50;;
35897;SDS011;21997;47.118;15.346;2022-07-23T11:50:27;5.07;;;4.68;;
35897;SDS011;21997;47.118;15.346;2022-07-23T11:52:53;4.53;;;4.18;;
35897;SDS011;21997;47.118;15.346;2022-07-23T11:55:19;4.32;;;4.03;;
35897;SDS011;21997;47.118;15.346;2022-07-23T11:57:44;5.70;;;3.80;;
35897;SDS011;21997;47.118;15.346;2022-07-23T12:02:41;4.95;;;4.53;;
35897;SDS011;21997;47.118;15.346;2022-07-23T12:05:12;4.53;;;4.13;;
35897;SDS011;21997;47.118;15.346;2022-07-23T12:07:41;3.78;;;3.47;;
35897;SDS011;21997;47.118;15.346;2022-07-23T12:10:12;4.47;;;4.10;;
35897;SDS011;21997;47.118;15.346;2022-07-23T12:12:41;4.13;;;3.83;;
35897;SDS011;21997;47.118;15.346;2022-07-23T12:15:08;4.13;;;3.83;;
35897;SDS011;21997;47.118;15.346;2022-07-23T12:17:36;4.20;;;3.90;;
35897;SDS011;21997;47.118;15.346;2022-07-23T12:20:06;4.20;;;3.90;;
35897;SDS011;21997;47.118;15.346;2022-07-23T12:22:42;4.78;;;4.28;;
35897;SDS011;21997;47.118;15.346;2022-07-23T12:25:10;4.60;;;4.30;;
35897;SDS011;21997;47.118;15.346;2022-07-23T12:27:37;4.95;;;4.43;;
35897;SDS011;21997;47.118;15.346;2022-07-23T12:30:20;4.22;;;3.90;;
35897;SDS011;21997;47.118;15.346;2022-07-23T12:32:48;5.28;;;4.00;;
35897;SDS011;21997;47.118;15.346;2022-07-23T12:35:14;4.70;;;4.10;;
35897;SDS011;21997;47.118;15.346;2022-07-23T12:37:41;5.63;;;4.70;;
35897;SDS011;21997;47.118;15.346;2022-07-23T12:40:18;4.88;;;4.50;;
35897;SDS011;21997;47.118;15.346;2022-07-23T12:42:50;4.82;;;4.20;;
35897;SDS011;21997;47.118;15.346;2022-07-23T12:45:28;10.88;;;4.75;;
35897;SDS011;21997;47.118;15.346;2022-07-23T12:48:15;4.13;;;3.83;;
35897;SDS011;21997;47.118;15.346;2022-07-23T12:53:27;4.43;;;4.07;;
35897;SDS011;21997;47.118;15.346;2022-07-23T12:56:04;5.93;;;4.40;;
35897;SDS011;21997;47.118;15.346;2022-07-23T12:58:52;4.57;;;4.18;;
35897;SDS011;21997;47.118;15.346;2022-07-23T13:04:08;4.35;;;4.05;;
35897;SDS011;21997;47.118;15.346;2022-07-23T13:06:36;4.65;;;4.13;;
35897;SDS011;21997;47.118;15.346;2022-07-23T13:09:04;4.38;;;4.07;;
35897;SDS011;21997;47.118;15.346;2022-07-23T13:11:31;3.72;;;3.42;;
35897;SDS011;21997;47.118;15.346;2022-07-23T13:13:56;3.90;;;3.60;;
35897;SDS011;21997;47.118;15.346;2022-07-23T13:16:22;4.13;;;3.80;;
35897;SDS011;21997;47.118;15.346;2022-07-23T13:18:48;4.50;;;4.10;;
35897;SDS011;21997;47.118;15.346;2022-07-23T13:21:13;4.10;;;3.70;;
35897;SDS011;21997;47.118;15.346;2022-07-23T13:23:39;4.07;;;3.85;;
35897;SDS011;21997;47.118;15.346;2022-07-23T13:26:04;4.22;;;3.92;;
35897;SDS011;21997;47.118;15.346;2022-07-23T13:28:30;4.10;;;3.80;;
35897;SDS011;21997;47.118;15.346;2022-07-23T13:30:55;4.85;;;4.32;;
35897;SDS011;21997;47.118;15.346;2022-07-23T13:33:22;4.60;;;4.30;;
35897;SDS011;21997;47.118;15.346;2022-07-23T13:35:48;4.88;;;3.88;;
35897;SDS011;21997;47.118;15.346;2022-07-23T13:38:14;4.65;;;4.25;;
35897;SDS011;21997;47.118;15.346;2022-07-23T13:40:41;4.35;;;4.05;;
35897;SDS011;21997;47.118;15.346;2022-07-23T13:43:11;4.07;;;3.78;;
35897;SDS011;21997;47.118;15.346;2022-07-23T13:45:38;4.28;;;3.90;;
35897;SDS011;21997;47.118;15.346;2022-07-23T13:48:05;4.35;;;4.05;;
35897;SDS011;21997;47.118;15.346;2022-07-23T13:50:31;4.43;;;4.03;;
35897;SDS011;21997;47.118;15.346;2022-07-23T13:52:57;4.13;;;3.75;;
35897;SDS011;21997;47.118;15.346;2022-07-23T13:55:25;4.28;;;3.85;;
35897;SDS011;21997;47.118;15.346;2022-07-23T13:57:51;4.45;;;4.07;;
35897;SDS011;21997;47.118;15.346;2022-07-23T14:00:16;4.00;;;3.70;;
35897;SDS011;21997;47.118;15.346;2022-07-23T14:02:42;4.25;;;3.95;;
35897;SDS011;21997;47.118;15.346;2022-07-23T14:05:09;4.00;;;3.60;;
35897;SDS011;21997;47.118;15.346;2022-07-23T14:07:35;5.70;;;4.07;;
35897;SDS011;21997;47.118;15.346;2022-07-23T14:10:03;4.07;;;3.78;;
35897;SDS011;21997;47.118;15.346;2022-07-23T14:12:29;4.47;;;4.07;;
35897;SDS011;21997;47.118;15.346;2022-07-23T14:14:55;4.03;;;3.72;;
35897;SDS011;21997;47.118;15.346;2022-07-23T14:17:21;4.45;;;4.05;;
35897;SDS011;21997;47.118;15.346;2022-07-23T14:19:46;4.35;;;3.95;;
35897;SDS011;21997;47.118;15.346;2022-07-23T14:22:11;4.68;;;4.28;;
35897;SDS011;21997;47.118;15.346;2022-07-23T14:24:37;5.10;;;4.60;;
35897;SDS011;21997;47.118;15.346;2022-07-23T14:27:03;4.88;;;4.47;;
35897;SDS011;21997;47.118;15.346;2022-07-23T14:29:29;3.85;;;3.55;;
35897;SDS011;21997;47.118;15.346;2022-07-23T14:31:54;4.30;;;3.90;;
35897;SDS011;21997;47.118;15.346;2022-07-23T14:34:20;4.15;;;3.85;;
35897;SDS011;21997;47.118;15.346;2022-07-23T14:36:45;4.55;;;4.15;;
35897;SDS011;21997;47.118;15.346;2022-07-23T14:39:11;4.00;;;3.70;;
35897;SDS011;21997;47.118;15.346;2022-07-23T14:41:37;4.38;;;4.00;;
35897;SDS011;21997;47.118;15.346;2022-07-23T14:44:03;8.98;;;3.88;;
35897;SDS011;21997;47.118;15.346;2022-07-23T14:46:29;4.32;;;3.95;;
35897;SDS011;21997;47.118;15.346;2022-07-23T14:48:54;4.50;;;4.15;;
35897;SDS011;21997;47.118;15.346;2022-07-23T14:51:20;4.25;;;3.95;;
35897;SDS011;21997;47.118;15.346;2022-07-23T14:53:45;3.85;;;3.65;;
35897;SDS011;21997;47.118;15.346;2022-07-23T14:56:11;4.80;;;4.30;;
35897;SDS011;21997;47.118;15.346;2022-07-23T14:58:38;4.50;;;4.10;;
35897;SDS011;21997;47.118;15.346;2022-07-23T15:01:03;5.10;;;4.70;;
35897;SDS011;21997;47.118;15.346;2022-07-23T15:03:29;5.18;;;4.78;;
35897;SDS011;21997;47.118;15.346;2022-07-23T15:05:54;4.80;;;4.28;;